Time;durP1;ratioP1;P1;durP2;ratioP2;P2;SDS_P1;SDS_P2;PMS_P1;PMS_P2;Temp;Humidity;BMP_temperature;BMP_pressure;BME280_temperature;BME280_humidity;BME280_pressure;Samples;Min_cycle;Max_cycle;Signal;HPM_P1;HPM_P2
2022/12/07 00:01:46;;;;;;;;;0.00;0.00;;;;;;;;5025217;28;28714;-96
2022/12/07 00:04:13;;;;;;;;;4.00;4.00;;;;;;;;5007694;28;27904;-96
2022/12/07 00:06:39;;;;;;;;;6.00;6.00;;;;;;;;5037865;28;27863;-96
2022/12/07 00:09:05;;;;;;;;;1.33;1.33;;;;;;;;5040294;28;30193;-96
2022/12/07 00:11:31;;;;;;;;;12.00;12.00;;;;;;;;5040034;28;28402;-96
2022/12/07 00:13:57;;;;;;;;;0.00;0.00;;;;;;;;5042595;28;27765;-96
2022/12/07 00:16:24;;;;;;;;;0.00;0.00;;;;;;;;5043723;28;27822;-96
2022/12/07 00:18:49;;;;;;;;;0.00;0.00;;;;;;;;5025183;28;29760;-96
2022/12/07 00:21:16;;;;;;;;;11.00;11.00;;;;;;;;5044136;28;28749;-96
2022/12/07 00:23:42;;;;;;;;;3.00;3.00;;;;;;;;5045232;28;27988;-96
2022/12/07 00:26:09;;;;;;;;;0.00;0.00;;;;;;;;5045858;28;28555;-96
2022/12/07 00:28:35;;;;;;;;;0.00;0.00;;;;;;;;5046427;28;30101;-96
2022/12/07 00:31:04;;;;;;;;;0.33;0.33;;;;;;;;5047235;28;28741;-96
2022/12/07 00:33:30;;;;;;;;;10.67;10.67;;;;;;;;5050229;28;27923;-96
2022/12/07 00:35:55;;;;;;;;;0.00;0.00;;;;;;;;5035715;28;28483;-96
2022/12/07 00:38:21;;;;;;;;;7.00;7.00;;;;;;;;5023920;28;28403;-96
2022/12/07 00:40:53;;;;;;;;;13.00;13.00;;;;;;;;5023866;28;28496;-96
2022/12/07 00:49:24;;;;;;;;;3.00;3.00;;;;;;;;5024687;28;28505;-96
2022/12/07 00:51:50;;;;;;;;;0.00;0.00;;;;;;;;5024284;28;28311;-96
2022/12/07 00:54:15;;;;;;;;;0.00;0.00;;;;;;;;5043744;28;28331;-96
2022/12/07 00:56:40;;;;;;;;;0.00;0.00;;;;;;;;5041356;28;27863;-96
2022/12/07 00:59:07;;;;;;;;;3.00;3.00;;;;;;;;5028415;28;28326;-96
2022/12/07 01:01:33;;;;;;;;;0.00;0.00;;;;;;;;5027567;28;28277;-96
2022/12/07 01:04:01;;;;;;;;;0.00;0.00;;;;;;;;5045655;28;27808;-96
2022/12/07 01:06:27;;;;;;;;;6.00;6.00;;;;;;;;5048093;28;28497;-96
2022/12/07 01:08:54;;;;;;;;;0.00;0.00;;;;;;;;5051499;28;30287;-96
2022/12/07 01:11:21;;;;;;;;;1.00;1.00;;;;;;;;5047684;28;28367;-96
2022/12/07 01:13:47;;;;;;;;;0.00;0.00;;;;;;;;5033036;28;27827;-96
2022/12/07 01:16:15;;;;;;;;;0.00;0.00;;;;;;;;5047654;28;28423;-96
2022/12/07 01:18:41;;;;;;;;;0.75;0.75;;;;;;;;5056177;28;44613;-96
2022/12/07 01:21:26;;;;;;;;;0.00;0.00;;;;;;;;5038927;28;44799;-96
2022/12/07 01:23:57;;;;;;;;;0.00;0.00;;;;;;;;5037477;28;44760;-96
2022/12/07 01:35:33;;;;;;;;;3.00;3.00;;;;;;;;5068109;28;8763;-96
2022/12/07 01:38:00;;;;;;;;;0.00;0.00;;;;;;;;5064539;28;8799;-96
2022/12/07 01:40:25;;;;;;;;;0.00;0.00;;;;;;;;5051399;28;8746;-96
2022/12/07 01:42:53;;;;;;;;;0.00;0.00;;;;;;;;5043782;28;9673;-96
2022/12/07 01:45:18;;;;;;;;;4.00;4.00;;;;;;;;5054615;28;8754;-96
2022/12/07 01:47:50;;;;;;;;;0.00;0.00;;;;;;;;5044969;28;8813;-96
2022/12/07 01:50:15;;;;;;;;;0.00;0.00;;;;;;;;5060640;28;8825;-96
2022/12/07 01:52:41;;;;;;;;;0.00;0.00;;;;;;;;5057802;28;8875;-96
2022/12/07 01:55:12;;;;;;;;;0.00;0.00;;;;;;;;5060640;28;8818;-96
2022/12/07 01:57:39;;;;;;;;;4.00;4.00;;;;;;;;5056004;28;8750;-96
2022/12/07 02:00:06;;;;;;;;;0.00;0.00;;;;;;;;5038776;28;8805;-96
2022/12/07 02:02:33;;;;;;;;;0.00;0.00;;;;;;;;5037483;28;8742;-96
2022/12/07 02:04:59;;;;;;;;;0.00;0.00;;;;;;;;5050631;28;8814;-96
2022/12/07 02:07:26;;;;;;;;;0.00;0.00;;;;;;;;5061273;28;8753;-96
2022/12/07 02:09:52;;;;;;;;;1.00;1.00;;;;;;;;5063067;28;8761;-96
2022/12/07 02:12:20;;;;;;;;;0.00;0.00;;;;;;;;5054300;28;8792;-96
2022/12/07 02:14:47;;;;;;;;;0.00;0.00;;;;;;;;5072900;28;8736;-96
2022/12/07 02:17:12;;;;;;;;;0.67;0.67;;;;;;;;5070991;28;8787;-96
2022/12/07 02:20:01;;;;;;;;;0.00;0.00;;;;;;;;5067370;28;8795;-96
2022/12/07 02:22:42;;;;;;;;;0.00;0.00;;;;;;;;5051200;28;8815;-96
2022/12/07 02:25:22;;;;;;;;;0.00;0.00;;;;;;;;5067870;28;8739;-96
2022/12/07 02:27:53;;;;;;;;;2.67;2.67;;;;;;;;5053663;28;8759;-96
2022/12/07 02:30:21;;;;;;;;;1.00;1.00;;;;;;;;5067475;28;8904;-96
2022/12/07 02:33:05;;;;;;;;;0.00;0.00;;;;;;;;5067429;28;8831;-96
2022/12/07 02:35:33;;;;;;;;;0.00;0.00;;;;;;;;5051022;28;8815;-96
2022/12/07 02:37:59;;;;;;;;;0.00;0.00;;;;;;;;5066159;28;8736;-96
2022/12/07 02:40:31;;;;;;;;;0.00;0.00;;;;;;;;5063790;28;8913;-96
2022/12/07 02:43:08;;;;;;;;;3.00;3.00;;;;;;;;5066453;28;8841;-96
2022/12/07 02:45:36;;;;;;;;;0.00;0.00;;;;;;;;5067138;28;8830;-96
2022/12/07 02:48:02;;;;;;;;;4.00;4.00;;;;;;;;5065700;28;8751;-96
2022/12/07 02:50:28;;;;;;;;;0.00;0.00;;;;;;;;5063763;28;8814;-96
2022/12/07 02:52:54;;;;;;;;;0.00;0.00;;;;;;;;5062163;28;8783;-96
2022/12/07 02:55:23;;;;;;;;;0.00;0.00;;;;;;;;5061180;28;8811;-96
2022/12/07 02:57:51;;;;;;;;;0.00;0.00;;;;;;;;5062472;28;8770;-96
2022/12/07 03:00:20;;;;;;;;;31.00;31.00;;;;;;;;5053866;28;8754;-95
2022/12/07 03:03:00;;;;;;;;;0.00;0.00;;;;;;;;5042755;28;8813;-96
2022/12/07 03:05:43;;;;;;;;;0.00;0.00;;;;;;;;5057218;28;8929;-96
2022/12/07 03:08:21;;;;;;;;;0.00;0.00;;;;;;;;5063384;28;8747;-96
2022/12/07 03:10:59;;;;;;;;;1.00;1.00;;;;;;;;5064849;28;8814;-96
2022/12/07 03:13:30;;;;;;;;;0.00;0.00;;;;;;;;5045516;28;8825;-96
2022/12/07 03:15:58;;;;;;;;;0.00;0.00;;;;;;;;5042318;28;8798;-96
2022/12/07 03:18:25;;;;;;;;;1.00;1.00;;;;;;;;5043299;28;8908;-96
2022/12/07 03:20:54;;;;;;;;;0.00;0.00;;;;;;;;5049517;28;8735;-96
2022/12/07 03:23:22;;;;;;;;;10.00;10.00;;;;;;;;5055311;28;8766;-96
2022/12/07 03:25:50;;;;;;;;;0.00;0.00;;;;;;;;5042919;28;8805;-96
2022/12/07 03:28:17;;;;;;;;;0.00;0.00;;;;;;;;5061717;28;8889;-96
2022/12/07 03:30:46;;;;;;;;;0.00;0.00;;;;;;;;5060035;28;8751;-96
2022/12/07 03:33:31;;;;;;;;;0.00;0.00;;;;;;;;5062881;28;8791;-96
2022/12/07 03:36:02;;;;;;;;;0.00;0.00;;;;;;;;5062330;28;8801;-96
2022/12/07 03:38:31;;;;;;;;;0.00;0.00;;;;;;;;5063816;28;8744;-96
2022/12/07 03:41:02;;;;;;;;;0.00;0.00;;;;;;;;5065231;28;8838;-96
2022/12/07 03:43:30;;;;;;;;;0.33;0.33;;;;;;;;5066616;28;8827;-96
2022/12/07 03:46:02;;;;;;;;;0.00;0.00;;;;;;;;5070435;28;8743;-96
2022/12/07 03:48:44;;;;;;;;;0.00;0.00;;;;;;;;5069262;28;8744;-96
2022/12/07 03:51:15;;;;;;;;;0.00;0.00;;;;;;;;5062500;28;8810;-96
2022/12/07 03:53:46;;;;;;;;;4.00;4.00;;;;;;;;5053476;28;8817;-96
2022/12/07 03:56:12;;;;;;;;;0.00;0.00;;;;;;;;5067063;28;8774;-96
2022/12/07 03:58:38;;;;;;;;;0.00;0.00;;;;;;;;5065950;28;9009;-96
2022/12/07 04:01:04;;;;;;;;;0.00;0.00;;;;;;;;5066648;28;8769;-96
2022/12/07 04:03:29;;;;;;;;;0.00;0.00;;;;;;;;5045175;28;8807;-96
2022/12/07 04:05:55;;;;;;;;;0.00;0.00;;;;;;;;5064179;28;8803;-96
2022/12/07 04:08:21;;;;;;;;;0.00;0.00;;;;;;;;5046672;28;8830;-96
2022/12/07 04:10:47;;;;;;;;;0.00;0.00;;;;;;;;5065923;28;8806;-96
2022/12/07 04:13:12;;;;;;;;;0.00;0.00;;;;;;;;5063625;28;8795;-96
2022/12/07 04:15:37;;;;;;;;;0.00;0.00;;;;;;;;5065427;28;8823;-96
2022/12/07 04:18:03;;;;;;;;;0.00;0.00;;;;;;;;5065615;28;8755;-96
2022/12/07 04:20:28;;;;;;;;;0.00;0.00;;;;;;;;5067477;28;8853;-96
2022/12/07 04:22:58;;;;;;;;;0.00;0.00;;;;;;;;5072735;28;8748;-96
2022/12/07 04:25:24;;;;;;;;;0.00;0.00;;;;;;;;5073068;28;8739;-96
2022/12/07 04:27:50;;;;;;;;;0.00;0.00;;;;;;;;5071141;28;8811;-96
2022/12/07 04:30:16;;;;;;;;;0.00;0.00;;;;;;;;5069335;28;8827;-96
2022/12/07 04:32:43;;;;;;;;;0.00;0.00;;;;;;;;5068629;28;8787;-96
2022/12/07 04:35:08;;;;;;;;;0.00;0.00;;;;;;;;5065127;28;8746;-96
2022/12/07 04:37:34;;;;;;;;;0.00;0.00;;;;;;;;5063293;28;8881;-96
2022/12/07 04:39:59;;;;;;;;;82.00;67.00;;;;;;;;5047547;28;8875;-96
2022/12/07 04:42:24;;;;;;;;;0.00;0.00;;;;;;;;5067351;28;8813;-96
2022/12/07 04:44:50;;;;;;;;;0.00;0.00;;;;;;;;5067369;28;8873;-96
2022/12/07 04:47:17;;;;;;;;;0.00;0.00;;;;;;;;5068706;28;8900;-96
2022/12/07 04:49:42;;;;;;;;;0.00;0.00;;;;;;;;5067217;28;8786;-96
2022/12/07 04:52:10;;;;;;;;;6.67;6.67;;;;;;;;5069907;28;8823;-96
2022/12/07 04:54:35;;;;;;;;;17.50;13.75;;;;;;;;5069700;28;8747;-96
2022/12/07 04:57:03;;;;;;;;;0.00;0.00;;;;;;;;5071663;28;8820;-96
2022/12/07 04:59:28;;;;;;;;;0.00;0.00;;;;;;;;5033704;28;8785;-96
2022/12/07 05:01:53;;;;;;;;;0.00;0.00;;;;;;;;5047540;28;8833;-96
2022/12/07 05:04:19;;;;;;;;;0.00;0.00;;;;;;;;5056698;28;8791;-96
2022/12/07 05:06:45;;;;;;;;;0.00;0.00;;;;;;;;5068760;28;8773;-96
2022/12/07 05:09:10;;;;;;;;;0.00;0.00;;;;;;;;5065497;28;8807;-96
2022/12/07 05:11:38;;;;;;;;;0.00;0.00;;;;;;;;5063555;28;8850;-96
2022/12/07 05:14:14;;;;;;;;;0.00;0.00;;;;;;;;5051095;28;8914;-96
2022/12/07 05:16:40;;;;;;;;;0.00;0.00;;;;;;;;5059014;28;8773;-96
2022/12/07 05:19:05;;;;;;;;;0.00;0.00;;;;;;;;5058224;28;8811;-96
2022/12/07 05:21:31;;;;;;;;;0.00;0.00;;;;;;;;5059043;28;8813;-96
2022/12/07 05:23:56;;;;;;;;;0.00;0.00;;;;;;;;5060917;28;8807;-96
2022/12/07 05:26:22;;;;;;;;;0.00;0.00;;;;;;;;5063428;28;8834;-96
2022/12/07 05:28:51;;;;;;;;;0.00;0.00;;;;;;;;5063411;28;8818;-96
2022/12/07 05:31:16;;;;;;;;;0.00;0.00;;;;;;;;5060971;28;8790;-96
2022/12/07 05:33:42;;;;;;;;;0.00;0.00;;;;;;;;5061529;28;8802;-96
2022/12/07 05:36:07;;;;;;;;;0.00;0.00;;;;;;;;5043839;28;8833;-96
2022/12/07 05:38:33;;;;;;;;;0.00;0.00;;;;;;;;5061479;28;8819;-96
2022/12/07 05:41:03;;;;;;;;;0.00;0.00;;;;;;;;5046705;28;8825;-96
2022/12/07 05:43:29;;;;;;;;;0.00;0.00;;;;;;;;5042958;28;8835;-96
2022/12/07 05:45:54;;;;;;;;;0.00;0.00;;;;;;;;5041321;28;8810;-96
2022/12/07 05:48:19;;;;;;;;;0.00;0.00;;;;;;;;5042837;28;8904;-96
2022/12/07 05:50:47;;;;;;;;;1.00;1.00;;;;;;;;5038288;28;8817;-96
2022/12/07 05:53:12;;;;;;;;;0.00;0.00;;;;;;;;5048548;28;8747;-96
2022/12/07 05:55:38;;;;;;;;;0.00;0.00;;;;;;;;5065064;28;8830;-96
2022/12/07 06:00:49;;;;;;;;;0.00;0.00;;;;;;;;5070012;28;8744;-96
2022/12/07 06:03:15;;;;;;;;;0.00;0.00;;;;;;;;5071630;28;8751;-96
2022/12/07 06:05:40;;;;;;;;;0.00;0.00;;;;;;;;5068877;28;8817;-96
2022/12/07 06:08:05;;;;;;;;;0.00;0.00;;;;;;;;5063789;28;8925;-96
2022/12/07 06:10:31;;;;;;;;;0.00;0.00;;;;;;;;5063026;28;8873;-96
2022/12/07 06:12:56;;;;;;;;;0.00;0.00;;;;;;;;5062230;28;8819;-96
2022/12/07 06:15:22;;;;;;;;;3.00;3.00;;;;;;;;5062249;28;8843;-96
2022/12/07 06:17:48;;;;;;;;;0.00;0.00;;;;;;;;5064396;28;8791;-96
2022/12/07 06:20:13;;;;;;;;;0.00;0.00;;;;;;;;5065347;28;8831;-96
2022/12/07 06:22:38;;;;;;;;;0.00;0.00;;;;;;;;5065494;28;8783;-96
2022/12/07 06:25:04;;;;;;;;;0.00;0.00;;;;;;;;5062839;28;8830;-96
2022/12/07 06:27:29;;;;;;;;;0.00;0.00;;;;;;;;5059359;28;8965;-96
2022/12/07 06:29:54;;;;;;;;;0.00;0.00;;;;;;;;5060158;28;8818;-96
2022/12/07 06:32:20;;;;;;;;;0.00;0.00;;;;;;;;5056913;28;8837;-96
2022/12/07 06:34:47;;;;;;;;;4.00;4.00;;;;;;;;5040017;28;8849;-96
2022/12/07 06:37:12;;;;;;;;;0.00;0.00;;;;;;;;5041202;28;8734;-96
2022/12/07 06:39:38;;;;;;;;;0.00;0.00;;;;;;;;5041842;28;8805;-96
2022/12/07 06:42:04;;;;;;;;;0.00;0.00;;;;;;;;5044290;28;8907;-96
2022/12/07 06:44:29;;;;;;;;;1.00;1.00;;;;;;;;5041005;28;9617;-96
2022/12/07 06:46:54;;;;;;;;;32.25;32.25;;;;;;;;5044108;28;8821;-96
2022/12/07 06:49:21;;;;;;;;;1.00;1.00;;;;;;;;5045500;28;8884;-96
2022/12/07 06:51:47;;;;;;;;;0.00;0.00;;;;;;;;5047741;28;8747;-96
2022/12/07 06:54:13;;;;;;;;;0.00;0.00;;;;;;;;5047252;28;8793;-96
2022/12/07 06:56:38;;;;;;;;;4.00;4.00;;;;;;;;5046608;28;8817;-96
2022/12/07 06:59:06;;;;;;;;;0.00;0.00;;;;;;;;5048018;28;8814;-96
2022/12/07 07:01:31;;;;;;;;;6.00;6.00;;;;;;;;5056298;28;8747;-96
2022/12/07 07:03:57;;;;;;;;;0.00;0.00;;;;;;;;5055192;28;8811;-96
2022/12/07 07:06:23;;;;;;;;;4.00;4.00;;;;;;;;5038789;28;8793;-96
2022/12/07 07:08:48;;;;;;;;;0.00;0.00;;;;;;;;5097350;22;8836;-96
2022/12/07 07:11:14;;;;;;;;;0.00;0.00;;;;;;;;5092490;28;8815;-96
2022/12/07 07:13:39;;;;;;;;;0.00;0.00;;;;;;;;5085579;28;8823;-96
2022/12/07 07:16:05;;;;;;;;;0.00;0.00;;;;;;;;5078248;28;8835;-96
2022/12/07 07:18:30;;;;;;;;;0.00;0.00;;;;;;;;5076505;28;8917;-96
2022/12/07 07:20:55;;;;;;;;;0.00;0.00;;;;;;;;5076285;28;8840;-96
2022/12/07 07:25:56;;;;;;;;;2.67;2.67;;;;;;;;5644632;22;8747;-90
2022/12/07 07:28:31;;;;;;;;;0.00;0.00;;;;;;;;5032010;28;8844;-93
2022/12/07 07:30:56;;;;;;;;;0.00;0.00;;;;;;;;5033925;28;8817;-92
2022/12/07 07:33:23;;;;;;;;;0.00;0.00;;;;;;;;5049464;28;8854;-95
2022/12/07 07:35:48;;;;;;;;;0.00;0.00;;;;;;;;5052100;28;8803;-88
2022/12/07 07:38:13;;;;;;;;;0.00;0.00;;;;;;;;5035370;28;8832;-89
2022/12/07 07:40:39;;;;;;;;;4.00;4.00;;;;;;;;5031623;28;8829;-91
2022/12/07 07:43:04;;;;;;;;;0.00;0.00;;;;;;;;5032301;28;8821;-90
2022/12/07 07:45:29;;;;;;;;;0.00;0.00;;;;;;;;5033486;28;8893;-89
2022/12/07 07:47:54;;;;;;;;;0.00;0.00;;;;;;;;5032720;28;8827;-89
2022/12/07 07:50:20;;;;;;;;;5.00;5.00;;;;;;;;5032357;28;8841;-88
2022/12/07 07:52:46;;;;;;;;;0.00;0.00;;;;;;;;5032701;28;8814;-89
2022/12/07 07:55:11;;;;;;;;;0.00;0.00;;;;;;;;5031375;28;9573;-88
2022/12/07 07:57:37;;;;;;;;;0.00;0.00;;;;;;;;5033586;28;8952;-89
2022/12/07 08:00:04;;;;;;;;;0.00;0.00;;;;;;;;5031940;28;8812;-88
2022/12/07 08:02:29;;;;;;;;;1.00;1.00;;;;;;;;5025056;28;8940;-89
2022/12/07 08:04:55;;;;;;;;;0.00;0.00;;;;;;;;5031383;28;8830;-88
2022/12/07 08:07:20;;;;;;;;;0.00;0.00;;;;;;;;5029845;28;8818;-89
2022/12/07 08:09:45;;;;;;;;;0.00;0.00;;;;;;;;5028034;28;8895;-90
2022/12/07 08:12:10;;;;;;;;;0.00;0.00;;;;;;;;5027475;28;8843;-89
2022/12/07 08:14:35;;;;;;;;;0.00;0.00;;;;;;;;5026331;28;8935;-89
2022/12/07 08:17:01;;;;;;;;;0.00;0.00;;;;;;;;5028012;28;8932;-89
2022/12/07 08:19:26;;;;;;;;;0.00;0.00;;;;;;;;5033782;28;8871;-88
2022/12/07 08:21:51;;;;;;;;;25.00;16.00;;;;;;;;5026934;28;8833;-88
2022/12/07 08:24:17;;;;;;;;;0.00;0.00;;;;;;;;5027973;28;8821;-89
2022/12/07 08:26:42;;;;;;;;;0.00;0.00;;;;;;;;5028913;28;8960;-88
2022/12/07 08:29:07;;;;;;;;;0.00;0.00;;;;;;;;5028555;28;9676;-93
2022/12/07 08:31:33;;;;;;;;;0.00;0.00;;;;;;;;5024927;28;8872;-89
2022/12/07 08:33:58;;;;;;;;;0.00;0.00;;;;;;;;5025584;28;8854;-90
2022/12/07 08:36:23;;;;;;;;;0.00;0.00;;;;;;;;5026322;28;8860;-89
2022/12/07 08:38:49;;;;;;;;;4.00;4.00;;;;;;;;5024818;28;8821;-89
2022/12/07 08:41:14;;;;;;;;;0.00;0.00;;;;;;;;5027694;28;8841;-91
2022/12/07 08:43:39;;;;;;;;;15.00;15.00;;;;;;;;5028734;28;8853;-88
2022/12/07 08:46:09;;;;;;;;;4.00;4.00;;;;;;;;5022053;28;8875;-87
2022/12/07 08:48:37;;;;;;;;;0.00;0.00;;;;;;;;5016262;28;8917;-88
2022/12/07 08:51:02;;;;;;;;;0.00;0.00;;;;;;;;5027007;28;8826;-94
2022/12/07 08:53:28;;;;;;;;;0.00;0.00;;;;;;;;5022398;28;8845;-87
2022/12/07 08:55:56;;;;;;;;;70.00;61.00;;;;;;;;5028775;28;8801;-92
2022/12/07 08:58:21;;;;;;;;;0.00;0.00;;;;;;;;5030071;28;11550;-92
2022/12/07 09:00:46;;;;;;;;;0.00;0.00;;;;;;;;5024562;28;8883;-90
2022/12/07 09:03:12;;;;;;;;;0.00;0.00;;;;;;;;5030686;28;8852;-92
2022/12/07 09:05:37;;;;;;;;;0.00;0.00;;;;;;;;5030530;28;8833;-90
2022/12/07 09:08:02;;;;;;;;;0.00;0.00;;;;;;;;5026812;28;9548;-92
2022/12/07 09:10:28;;;;;;;;;0.00;0.00;;;;;;;;5027506;28;8849;-91
2022/12/07 09:12:53;;;;;;;;;0.00;0.00;;;;;;;;5029253;28;8981;-90
2022/12/07 09:15:19;;;;;;;;;1.00;1.00;;;;;;;;5032040;28;8852;-89
2022/12/07 09:17:44;;;;;;;;;0.00;0.00;;;;;;;;5034632;28;8882;-92
2022/12/07 09:20:09;;;;;;;;;0.00;0.00;;;;;;;;5021285;28;8864;-92
2022/12/07 09:22:34;;;;;;;;;16.00;16.00;;;;;;;;5046124;28;8853;-91
2022/12/07 09:25:00;;;;;;;;;5.00;4.67;;;;;;;;5030763;28;8868;-90
2022/12/07 09:27:26;;;;;;;;;0.00;0.00;;;;;;;;5030095;28;8853;-91
2022/12/07 09:29:51;;;;;;;;;0.00;0.00;;;;;;;;5029412;28;8818;-91
2022/12/07 09:32:17;;;;;;;;;0.00;0.00;;;;;;;;5028462;28;8826;-91
2022/12/07 09:34:42;;;;;;;;;2.33;2.33;;;;;;;;5029391;28;8841;-91
2022/12/07 09:37:08;;;;;;;;;0.00;0.00;;;;;;;;5029648;28;8850;-90
2022/12/07 09:39:33;;;;;;;;;0.00;0.00;;;;;;;;5026508;28;8960;-90
2022/12/07 09:41:59;;;;;;;;;0.00;0.00;;;;;;;;5017805;28;8866;-89
2022/12/07 09:44:25;;;;;;;;;0.00;0.00;;;;;;;;5029710;28;8900;-90
2022/12/07 09:46:52;;;;;;;;;0.00;0.00;;;;;;;;5029440;28;9623;-90
2022/12/07 09:49:19;;;;;;;;;0.00;0.00;;;;;;;;5020767;28;8832;-90
2022/12/07 09:51:44;;;;;;;;;0.00;0.00;;;;;;;;5034160;28;8911;-90
2022/12/07 09:54:13;;;;;;;;;16.00;12.00;;;;;;;;5027277;28;8818;-90
2022/12/07 09:56:38;;;;;;;;;0.00;0.00;;;;;;;;5027948;28;8808;-90
2022/12/07 09:59:03;;;;;;;;;35.50;35.50;;;;;;;;5028448;28;8845;-90
2022/12/07 10:01:32;;;;;;;;;0.00;0.00;;;;;;;;5030882;28;8904;-91
2022/12/07 10:04:06;;;;;;;;;2.00;2.00;;;;;;;;5022951;28;8848;-90
2022/12/07 10:06:32;;;;;;;;;0.00;0.00;;;;;;;;5020468;28;8826;-90
2022/12/07 10:08:57;;;;;;;;;0.00;0.00;;;;;;;;5027748;28;8841;-91
2022/12/07 10:11:22;;;;;;;;;0.00;0.00;;;;;;;;5026744;28;8849;-89
2022/12/07 10:13:49;;;;;;;;;0.00;0.00;;;;;;;;5025003;28;8817;-91
2022/12/07 10:16:27;;;;;;;;;0.00;0.00;;;;;;;;5027935;28;8782;-89
2022/12/07 10:18:53;;;;;;;;;22.00;22.00;;;;;;;;5030211;28;8848;-89
2022/12/07 10:21:25;;;;;;;;;0.00;0.00;;;;;;;;5027434;28;8849;-90
2022/12/07 10:24:23;;;;;;;;;0.00;0.00;;;;;;;;5026447;28;8872;-90
2022/12/07 10:26:48;;;;;;;;;0.00;0.00;;;;;;;;5008430;28;8913;-91
2022/12/07 10:29:32;;;;;;;;;0.00;0.00;;;;;;;;5024537;28;8933;-90
2022/12/07 10:31:59;;;;;;;;;0.00;0.00;;;;;;;;5008649;28;10324;-91
2022/12/07 10:34:25;;;;;;;;;0.00;0.00;;;;;;;;5008256;28;8956;-94
2022/12/07 10:36:50;;;;;;;;;0.00;0.00;;;;;;;;5010835;28;8938;-92
2022/12/07 10:39:18;;;;;;;;;0.00;0.00;;;;;;;;5024696;28;8840;-92
2022/12/07 10:41:57;;;;;;;;;0.00;0.00;;;;;;;;5008791;28;8842;-93
2022/12/07 10:44:24;;;;;;;;;0.00;0.00;;;;;;;;5020392;28;8836;-94
2022/12/07 10:46:55;;;;;;;;;0.33;0.33;;;;;;;;5007355;28;8807;-91
2022/12/07 10:49:24;;;;;;;;;0.00;0.00;;;;;;;;5026056;28;8808;-91
2022/12/07 10:52:00;;;;;;;;;0.00;0.00;;;;;;;;5009163;28;8819;-92
2022/12/07 10:54:44;;;;;;;;;0.00;0.00;;;;;;;;5025341;28;8812;-91
2022/12/07 10:57:21;;;;;;;;;0.00;0.00;;;;;;;;5023430;28;8822;-91
2022/12/07 10:59:46;;;;;;;;;0.00;0.00;;;;;;;;5007882;28;8801;-91
2022/12/07 11:02:17;;;;;;;;;0.00;0.00;;;;;;;;5013797;28;8884;-91
2022/12/07 11:05:01;;;;;;;;;0.00;0.00;;;;;;;;5027412;28;8895;-91
2022/12/07 11:07:44;;;;;;;;;0.00;0.00;;;;;;;;5019564;28;8832;-92
2022/12/07 11:10:09;;;;;;;;;0.00;0.00;;;;;;;;5019017;28;8909;-91
2022/12/07 11:12:52;;;;;;;;;0.00;0.00;;;;;;;;5024886;28;8837;-89
2022/12/07 11:15:20;;;;;;;;;0.00;0.00;;;;;;;;5021803;28;9868;-91
2022/12/07 11:17:45;;;;;;;;;0.00;0.00;;;;;;;;5027569;28;8805;-90
2022/12/07 11:20:30;;;;;;;;;0.00;0.00;;;;;;;;5029902;28;8906;-91
2022/12/07 11:22:55;;;;;;;;;0.00;0.00;;;;;;;;5026738;28;10075;-93
2022/12/07 11:25:39;;;;;;;;;0.00;0.00;;;;;;;;5030504;28;8825;-91
2022/12/07 11:28:23;;;;;;;;;0.00;0.00;;;;;;;;5028232;28;8805;-93
2022/12/07 11:30:54;;;;;;;;;0.00;0.00;;;;;;;;5026031;28;8882;-91
2022/12/07 11:33:29;;;;;;;;;0.00;0.00;;;;;;;;5025781;28;8910;-90
2022/12/07 11:36:13;;;;;;;;;0.00;0.00;;;;;;;;5021890;28;9988;-91
2022/12/07 11:38:38;;;;;;;;;0.00;0.00;;;;;;;;5023815;28;9755;-89
2022/12/07 11:41:14;;;;;;;;;0.00;0.00;;;;;;;;5022453;28;8868;-87
2022/12/07 11:43:50;;;;;;;;;4.00;4.00;;;;;;;;5025705;28;8813;-88
2022/12/07 11:46:16;;;;;;;;;0.00;0.00;;;;;;;;5033847;28;8809;-88
2022/12/07 11:48:47;;;;;;;;;0.00;0.00;;;;;;;;5032159;28;8813;-88
2022/12/07 11:51:13;;;;;;;;;0.00;0.00;;;;;;;;5026429;28;8834;-88
2022/12/07 11:53:44;;;;;;;;;0.00;0.00;;;;;;;;5026548;28;8837;-88
2022/12/07 11:56:12;;;;;;;;;0.00;0.00;;;;;;;;5027278;28;8810;-88
2022/12/07 11:58:43;;;;;;;;;0.00;0.00;;;;;;;;5027506;28;8802;-88
2022/12/07 12:01:19;;;;;;;;;0.00;0.00;;;;;;;;5022506;28;8825;-88
2022/12/07 12:03:46;;;;;;;;;0.00;0.00;;;;;;;;5026523;28;8821;-91
2022/12/07 12:06:12;;;;;;;;;0.00;0.00;;;;;;;;5028527;28;8823;-87
2022/12/07 12:08:45;;;;;;;;;0.00;0.00;;;;;;;;5030220;28;8848;-88
2022/12/07 12:11:37;;;;;;;;;0.00;0.00;;;;;;;;5026580;28;8837;-88
2022/12/07 12:14:10;;;;;;;;;0.00;0.00;;;;;;;;5009695;28;8886;-89
2022/12/07 12:16:37;;;;;;;;;0.00;0.00;;;;;;;;4993309;28;8848;-88
2022/12/07 12:19:09;;;;;;;;;0.00;0.00;;;;;;;;4992886;28;8834;-88
2022/12/07 12:21:34;;;;;;;;;0.00;0.00;;;;;;;;5009467;28;8867;-88
2022/12/07 12:24:12;;;;;;;;;0.00;0.00;;;;;;;;4992593;28;8837;-89
2022/12/07 12:26:38;;;;;;;;;0.00;0.00;;;;;;;;5012727;28;8812;-89
2022/12/07 12:29:05;;;;;;;;;0.00;0.00;;;;;;;;4994257;28;8821;-92
2022/12/07 12:31:36;;;;;;;;;0.00;0.00;;;;;;;;4987519;28;8958;-94
2022/12/07 12:34:03;;;;;;;;;0.00;0.00;;;;;;;;4988290;28;8845;-93
2022/12/07 12:36:34;;;;;;;;;0.00;0.00;;;;;;;;4992373;28;8820;-93
2022/12/07 12:39:20;;;;;;;;;0.00;0.00;;;;;;;;5007703;28;8814;-91
2022/12/07 12:44:17;;;;;;;;;0.00;0.00;;;;;;;;5006604;28;8837;-96
2022/12/07 12:46:53;;;;;;;;;0.00;0.00;;;;;;;;5012363;28;9970;-95
2022/12/07 12:49:19;;;;;;;;;0.00;0.00;;;;;;;;5016606;28;8903;-96
2022/12/07 12:51:46;;;;;;;;;0.00;0.00;;;;;;;;5031366;28;8837;-96
2022/12/07 12:54:19;;;;;;;;;0.00;0.00;;;;;;;;5031395;28;8972;-92
2022/12/07 12:57:03;;;;;;;;;0.00;0.00;;;;;;;;5027714;28;8910;-93
2022/12/07 12:59:43;;;;;;;;;0.00;0.00;;;;;;;;5028417;28;8817;-93
2022/12/07 13:02:26;;;;;;;;;0.00;0.00;;;;;;;;5033608;28;8809;-92
2022/12/07 13:04:53;;;;;;;;;0.00;0.00;;;;;;;;5033646;28;8758;-93
2022/12/07 13:07:37;;;;;;;;;0.00;0.00;;;;;;;;5030546;28;8928;-92
2022/12/07 13:10:02;;;;;;;;;0.00;0.00;;;;;;;;5025688;28;9676;-93
2022/12/07 13:12:27;;;;;;;;;0.00;0.00;;;;;;;;5033850;28;8918;-95
2022/12/07 13:14:53;;;;;;;;;0.00;0.00;;;;;;;;5037705;28;8848;-94
2022/12/07 13:17:47;;;;;;;;;0.00;0.00;;;;;;;;5035037;28;9295;-94
2022/12/07 13:20:32;;;;;;;;;0.00;0.00;;;;;;;;5017829;28;8844;-93
2022/12/07 13:22:59;;;;;;;;;0.00;0.00;;;;;;;;5031681;28;8801;-93
2022/12/07 13:25:30;;;;;;;;;0.00;0.00;;;;;;;;5031270;28;8836;-94
2022/12/07 13:27:57;;;;;;;;;0.00;0.00;;;;;;;;5029292;28;8817;-94
2022/12/07 13:30:23;;;;;;;;;0.00;0.00;;;;;;;;5033068;28;8951;-94
2022/12/07 13:32:56;;;;;;;;;0.00;0.00;;;;;;;;5022136;28;8936;-93
2022/12/07 13:35:30;;;;;;;;;0.00;0.00;;;;;;;;5029768;28;8825;-91
2022/12/07 13:37:55;;;;;;;;;0.00;0.00;;;;;;;;5035286;28;8843;-92
2022/12/07 13:40:21;;;;;;;;;0.00;0.00;;;;;;;;5034229;28;8818;-92
2022/12/07 13:42:46;;;;;;;;;0.00;0.00;;;;;;;;5034575;28;8762;-92
2022/12/07 13:45:47;;;;;;;;;0.00;0.00;;;;;;;;5029016;28;8824;-92
2022/12/07 13:48:13;;;;;;;;;0.00;0.00;;;;;;;;5033375;28;8932;-92
2022/12/07 13:50:38;;;;;;;;;0.00;0.00;;;;;;;;5034929;28;8830;-92
2022/12/07 13:53:11;;;;;;;;;0.00;0.00;;;;;;;;5034324;28;8868;-92
2022/12/07 13:55:43;;;;;;;;;0.00;0.00;;;;;;;;5028827;28;10743;-92
2022/12/07 13:58:09;;;;;;;;;0.00;0.00;;;;;;;;5032243;28;8881;-92
2022/12/07 14:00:36;;;;;;;;;0.00;0.00;;;;;;;;5030332;28;8842;-92
2022/12/07 14:03:03;;;;;;;;;0.00;0.00;;;;;;;;5028141;28;8948;-93
2022/12/07 14:05:28;;;;;;;;;0.00;0.00;;;;;;;;5034586;28;8784;-93
2022/12/07 14:07:58;;;;;;;;;0.00;0.00;;;;;;;;5029488;28;8830;-92
2022/12/07 14:10:24;;;;;;;;;0.00;0.00;;;;;;;;5030251;28;9994;-94
2022/12/07 14:12:50;;;;;;;;;0.00;0.00;;;;;;;;5032947;28;8845;-92
2022/12/07 14:15:20;;;;;;;;;0.00;0.00;;;;;;;;5032910;28;8896;-91
2022/12/07 14:17:49;;;;;;;;;0.00;0.00;;;;;;;;5023315;28;8845;-91
2022/12/07 14:20:35;;;;;;;;;0.00;0.00;;;;;;;;5035167;28;8859;-90
2022/12/07 14:23:08;;;;;;;;;0.00;0.00;;;;;;;;5029598;28;8824;-91
2022/12/07 14:25:44;;;;;;;;;0.00;0.00;;;;;;;;5028281;28;8822;-91
2022/12/07 14:28:23;;;;;;;;;0.00;0.00;;;;;;;;5024289;28;8828;-91
2022/12/07 14:30:49;;;;;;;;;0.00;0.00;;;;;;;;5021677;28;8921;-92
2022/12/07 14:33:14;;;;;;;;;0.00;0.00;;;;;;;;5029832;28;8811;-93
2022/12/07 14:35:40;;;;;;;;;0.00;0.00;;;;;;;;5026111;28;8810;-92
2022/12/07 14:38:05;;;;;;;;;0.00;0.00;;;;;;;;5023062;28;8806;-92
2022/12/07 14:40:31;;;;;;;;;0.00;0.00;;;;;;;;5028824;28;8943;-93
2022/12/07 14:43:00;;;;;;;;;0.00;0.00;;;;;;;;5027641;28;8854;-91
2022/12/07 14:45:25;;;;;;;;;0.00;0.00;;;;;;;;5026897;28;9613;-91
2022/12/07 14:47:50;;;;;;;;;0.00;0.00;;;;;;;;5029646;28;8837;-91
2022/12/07 14:50:17;;;;;;;;;0.00;0.00;;;;;;;;5030154;28;8844;-92
2022/12/07 14:52:44;;;;;;;;;0.00;0.00;;;;;;;;5028358;28;8758;-91
2022/12/07 14:55:13;;;;;;;;;0.00;0.00;;;;;;;;5033993;28;8789;-89
2022/12/07 14:57:38;;;;;;;;;0.00;0.00;;;;;;;;5028577;28;8828;-93
2022/12/07 15:00:04;;;;;;;;;0.00;0.00;;;;;;;;5028368;28;8817;-92
2022/12/07 15:02:29;;;;;;;;;0.00;0.00;;;;;;;;5027808;28;8826;-92
2022/12/07 15:04:54;;;;;;;;;0.00;0.00;;;;;;;;5032329;28;8852;-93
2022/12/07 15:07:20;;;;;;;;;0.00;0.00;;;;;;;;5028794;28;8880;-92
2022/12/07 15:09:46;;;;;;;;;0.00;0.00;;;;;;;;5031178;28;8976;-92
2022/12/07 15:12:11;;;;;;;;;0.00;0.00;;;;;;;;5027634;28;8865;-92
2022/12/07 15:14:36;;;;;;;;;0.00;0.00;;;;;;;;5032661;28;8841;-91
2022/12/07 15:17:01;;;;;;;;;0.00;0.00;;;;;;;;5021835;28;8833;-92
2022/12/07 15:19:27;;;;;;;;;0.00;0.00;;;;;;;;5034262;28;8818;-94
2022/12/07 15:21:52;;;;;;;;;0.00;0.00;;;;;;;;5029093;28;8852;-92
2022/12/07 15:24:18;;;;;;;;;0.00;0.00;;;;;;;;5030998;28;8964;-90